sensor_id;sensor_type;location;lat;lon;timestamp;P1;durP1;ratioP1;P2;durP2;ratioP2
55270;SDS011;41132;47.162;9.470;2022-10-28T00:01:03;3.75;;;1.40;;
55270;SDS011;41132;47.162;9.470;2022-10-28T00:03:50;6.07;;;1.30;;
55270;SDS011;41132;47.162;9.470;2022-10-28T00:06:17;7.82;;;1.55;;
55270;SDS011;41132;47.162;9.470;2022-10-28T00:08:48;5.10;;;1.60;;
55270;SDS011;41132;47.162;9.470;2022-10-28T00:11:14;5.82;;;1.58;;
55270;SDS011;41132;47.162;9.470;2022-10-28T00:13:49;2.95;;;1.25;;
55270;SDS011;41132;47.162;9.470;2022-10-28T00:16:18;4.55;;;1.50;;
55270;SDS011;41132;47.162;9.470;2022-10-28T00:18:45;4.80;;;1.60;;
55270;SDS011;41132;47.162;9.470;2022-10-28T00:21:13;3.88;;;1.42;;
55270;SDS011;41132;47.162;9.470;2022-10-28T00:23:40;8.68;;;1.88;;
55270;SDS011;41132;47.162;9.470;2022-10-28T00:26:10;5.18;;;1.50;;
55270;SDS011;41132;47.162;9.470;2022-10-28T00:28:44;4.93;;;1.50;;
55270;SDS011;41132;47.162;9.470;2022-10-28T00:31:13;5.78;;;1.70;;
55270;SDS011;41132;47.162;9.470;2022-10-28T00:33:39;3.85;;;1.38;;
55270;SDS011;41132;47.162;9.470;2022-10-28T00:38:35;4.75;;;1.30;;
55270;SDS011;41132;47.162;9.470;2022-10-28T00:41:01;4.70;;;1.73;;
55270;SDS011;41132;47.162;9.470;2022-10-28T00:43:38;4.07;;;1.38;;
55270;SDS011;41132;47.162;9.470;2022-10-28T00:46:27;4.80;;;1.38;;
55270;SDS011;41132;47.162;9.470;2022-10-28T00:49:00;3.35;;;1.30;;
55270;SDS011;41132;47.162;9.470;2022-10-28T00:51:30;3.25;;;1.17;;
55270;SDS011;41132;47.162;9.470;2022-10-28T00:53:59;3.83;;;1.40;;
55270;SDS011;41132;47.162;9.470;2022-10-28T00:56:27;3.97;;;1.40;;
55270;SDS011;41132;47.162;9.470;2022-10-28T00:58:56;3.42;;;1.15;;
55270;SDS011;41132;47.162;9.470;2022-10-28T01:01:24;4.10;;;1.35;;
55270;SDS011;41132;47.162;9.470;2022-10-28T01:03:50;2.78;;;1.25;;
55270;SDS011;41132;47.162;9.470;2022-10-28T01:06:15;5.68;;;1.50;;
55270;SDS011;41132;47.162;9.470;2022-10-28T01:08:41;3.85;;;1.50;;
55270;SDS011;41132;47.162;9.470;2022-10-28T01:19:29;4.55;;;1.50;;
55270;SDS011;41132;47.162;9.470;2022-10-28T01:28:04;6.63;;;1.70;;
55270;SDS011;41132;47.162;9.470;2022-10-28T01:33:50;5.30;;;1.50;;
55270;SDS011;41132;47.162;9.470;2022-10-28T01:36:33;3.88;;;1.40;;
55270;SDS011;41132;47.162;9.470;2022-10-28T01:39:12;5.25;;;1.42;;
55270;SDS011;41132;47.162;9.470;2022-10-28T01:41:50;4.20;;;1.27;;
55270;SDS011;41132;47.162;9.470;2022-10-28T01:45:09;4.47;;;1.60;;
55270;SDS011;41132;47.162;9.470;2022-10-28T01:47:34;3.20;;;1.38;;
55270;SDS011;41132;47.162;9.470;2022-10-28T01:50:25;4.00;;;1.45;;
55270;SDS011;41132;47.162;9.470;2022-10-28T01:52:56;3.83;;;1.30;;
55270;SDS011;41132;47.162;9.470;2022-10-28T01:55:29;5.28;;;1.42;;
55270;SDS011;41132;47.162;9.470;2022-10-28T01:58:00;5.15;;;1.35;;
55270;SDS011;41132;47.162;9.470;2022-10-28T02:00:27;3.80;;;1.48;;
55270;SDS011;41132;47.162;9.470;2022-10-28T02:02:55;3.45;;;1.58;;
55270;SDS011;41132;47.162;9.470;2022-10-28T02:16:47;4.43;;;1.42;;
55270;SDS011;41132;47.162;9.470;2022-10-28T02:24:32;4.07;;;1.40;;
55270;SDS011;41132;47.162;9.470;2022-10-28T02:27:01;3.65;;;1.50;;
55270;SDS011;41132;47.162;9.470;2022-10-28T02:29:43;3.47;;;1.55;;
55270;SDS011;41132;47.162;9.470;2022-10-28T02:32:24;4.63;;;1.50;;
55270;SDS011;41132;47.162;9.470;2022-10-28T02:34:54;5.00;;;1.50;;
55270;SDS011;41132;47.162;9.470;2022-10-28T02:37:25;3.88;;;1.33;;
55270;SDS011;41132;47.162;9.470;2022-10-28T02:39:54;2.83;;;1.30;;
55270;SDS011;41132;47.162;9.470;2022-10-28T02:42:23;4.22;;;1.58;;
55270;SDS011;41132;47.162;9.470;2022-10-28T02:44:54;4.22;;;1.30;;
55270;SDS011;41132;47.162;9.470;2022-10-28T02:47:25;3.90;;;1.15;;
55270;SDS011;41132;47.162;9.470;2022-10-28T02:49:56;5.43;;;1.70;;
55270;SDS011;41132;47.162;9.470;2022-10-28T02:52:26;4.63;;;1.15;;
55270;SDS011;41132;47.162;9.470;2022-10-28T02:54:54;5.35;;;1.40;;
55270;SDS011;41132;47.162;9.470;2022-10-28T02:57:22;2.92;;;1.52;;
55270;SDS011;41132;47.162;9.470;2022-10-28T02:59:52;5.45;;;1.55;;
55270;SDS011;41132;47.162;9.470;2022-10-28T03:02:19;3.83;;;1.27;;
55270;SDS011;41132;47.162;9.470;2022-10-28T03:04:45;3.35;;;1.30;;
55270;SDS011;41132;47.162;9.470;2022-10-28T03:07:10;3.28;;;1.27;;
55270;SDS011;41132;47.162;9.470;2022-10-28T03:09:35;4.18;;;1.55;;
55270;SDS011;41132;47.162;9.470;2022-10-28T03:12:01;6.30;;;1.40;;
55270;SDS011;41132;47.162;9.470;2022-10-28T03:14:26;2.78;;;1.20;;
55270;SDS011;41132;47.162;9.470;2022-10-28T03:16:51;4.40;;;1.20;;
55270;SDS011;41132;47.162;9.470;2022-10-28T03:19:17;3.97;;;1.50;;
55270;SDS011;41132;47.162;9.470;2022-10-28T03:21:42;4.80;;;1.30;;
55270;SDS011;41132;47.162;9.470;2022-10-28T03:24:07;2.45;;;1.02;;
55270;SDS011;41132;47.162;9.470;2022-10-28T03:26:33;4.05;;;1.30;;
55270;SDS011;41132;47.162;9.470;2022-10-28T03:28:58;3.35;;;1.35;;
55270;SDS011;41132;47.162;9.470;2022-10-28T03:31:23;4.22;;;1.30;;
55270;SDS011;41132;47.162;9.470;2022-10-28T03:33:48;6.25;;;1.48;;
55270;SDS011;41132;47.162;9.470;2022-10-28T03:36:14;4.03;;;1.70;;
55270;SDS011;41132;47.162;9.470;2022-10-28T03:38:39;6.45;;;2.00;;
55270;SDS011;41132;47.162;9.470;2022-10-28T03:41:04;3.75;;;1.27;;
55270;SDS011;41132;47.162;9.470;2022-10-28T03:43:30;5.50;;;1.50;;
55270;SDS011;41132;47.162;9.470;2022-10-28T03:45:55;4.13;;;1.30;;
55270;SDS011;41132;47.162;9.470;2022-10-28T03:48:20;4.25;;;1.48;;
55270;SDS011;41132;47.162;9.470;2022-10-28T03:50:46;9.23;;;1.73;;
55270;SDS011;41132;47.162;9.470;2022-10-28T03:53:11;2.83;;;1.20;;
55270;SDS011;41132;47.162;9.470;2022-10-28T03:55:36;6.30;;;1.55;;
55270;SDS011;41132;47.162;9.470;2022-10-28T03:58:02;8.10;;;1.50;;
55270;SDS011;41132;47.162;9.470;2022-10-28T04:00:28;4.60;;;1.75;;
55270;SDS011;41132;47.162;9.470;2022-10-28T04:02:53;2.97;;;1.55;;
55270;SDS011;41132;47.162;9.470;2022-10-28T04:05:19;5.68;;;1.50;;
55270;SDS011;41132;47.162;9.470;2022-10-28T04:07:45;3.13;;;1.23;;
55270;SDS011;41132;47.162;9.470;2022-10-28T04:10:11;4.75;;;1.52;;
55270;SDS011;41132;47.162;9.470;2022-10-28T04:12:36;2.75;;;1.15;;
55270;SDS011;41132;47.162;9.470;2022-10-28T04:15:02;2.65;;;1.20;;
55270;SDS011;41132;47.162;9.470;2022-10-28T04:17:27;3.58;;;1.48;;
55270;SDS011;41132;47.162;9.470;2022-10-28T04:19:53;3.25;;;1.20;;
55270;SDS011;41132;47.162;9.470;2022-10-28T04:22:18;5.05;;;1.33;;
55270;SDS011;41132;47.162;9.470;2022-10-28T04:24:43;5.95;;;1.40;;
55270;SDS011;41132;47.162;9.470;2022-10-28T04:27:09;3.50;;;1.30;;
55270;SDS011;41132;47.162;9.470;2022-10-28T04:29:34;5.25;;;1.40;;
55270;SDS011;41132;47.162;9.470;2022-10-28T04:32:00;3.45;;;1.20;;
55270;SDS011;41132;47.162;9.470;2022-10-28T04:34:25;6.90;;;1.13;;
55270;SDS011;41132;47.162;9.470;2022-10-28T04:36:50;6.47;;;1.50;;
55270;SDS011;41132;47.162;9.470;2022-10-28T04:39:16;3.85;;;1.40;;
55270;SDS011;41132;47.162;9.470;2022-10-28T04:41:41;3.58;;;1.27;;
55270;SDS011;41132;47.162;9.470;2022-10-28T04:44:07;4.20;;;1.60;;
55270;SDS011;41132;47.162;9.470;2022-10-28T04:46:32;4.43;;;1.25;;
55270;SDS011;41132;47.162;9.470;2022-10-28T04:48:58;5.40;;;1.40;;
55270;SDS011;41132;47.162;9.470;2022-10-28T04:51:23;3.67;;;1.38;;
55270;SDS011;41132;47.162;9.470;2022-10-28T04:53:48;4.60;;;1.48;;
55270;SDS011;41132;47.162;9.470;2022-10-28T04:56:13;4.85;;;1.45;;
55270;SDS011;41132;47.162;9.470;2022-10-28T04:58:39;4.10;;;1.30;;
55270;SDS011;41132;47.162;9.470;2022-10-28T05:01:05;4.00;;;1.20;;
55270;SDS011;41132;47.162;9.470;2022-10-28T05:03:31;3.50;;;1.65;;
55270;SDS011;41132;47.162;9.470;2022-10-28T05:05:56;3.70;;;1.30;;
55270;SDS011;41132;47.162;9.470;2022-10-28T05:08:22;4.95;;;1.73;;
55270;SDS011;41132;47.162;9.470;2022-10-28T05:10:47;4.75;;;1.33;;
55270;SDS011;41132;47.162;9.470;2022-10-28T05:13:15;3.45;;;1.20;;
55270;SDS011;41132;47.162;9.470;2022-10-28T05:15:43;3.17;;;1.30;;
55270;SDS011;41132;47.162;9.470;2022-10-28T05:18:08;6.32;;;1.40;;
55270;SDS011;41132;47.162;9.470;2022-10-28T05:20:33;4.70;;;1.52;;
55270;SDS011;41132;47.162;9.470;2022-10-28T05:22:59;3.33;;;1.40;;
55270;SDS011;41132;47.162;9.470;2022-10-28T05:25:24;4.13;;;1.30;;
55270;SDS011;41132;47.162;9.470;2022-10-28T05:27:50;4.72;;;1.25;;
55270;SDS011;41132;47.162;9.470;2022-10-28T05:30:15;7.22;;;1.77;;
55270;SDS011;41132;47.162;9.470;2022-10-28T05:32:42;4.25;;;1.45;;
55270;SDS011;41132;47.162;9.470;2022-10-28T05:35:07;7.40;;;1.35;;
55270;SDS011;41132;47.162;9.470;2022-10-28T05:37:33;3.38;;;1.30;;
55270;SDS011;41132;47.162;9.470;2022-10-28T05:39:58;4.35;;;1.40;;
55270;SDS011;41132;47.162;9.470;2022-10-28T05:42:24;2.03;;;1.20;;
55270;SDS011;41132;47.162;9.470;2022-10-28T05:44:49;5.00;;;1.35;;
55270;SDS011;41132;47.162;9.470;2022-10-28T05:47:14;5.78;;;1.30;;
55270;SDS011;41132;47.162;9.470;2022-10-28T05:49:40;3.85;;;1.33;;
55270;SDS011;41132;47.162;9.470;2022-10-28T05:52:05;4.30;;;1.30;;
55270;SDS011;41132;47.162;9.470;2022-10-28T05:54:30;2.92;;;1.40;;
55270;SDS011;41132;47.162;9.470;2022-10-28T05:56:56;4.32;;;1.20;;
55270;SDS011;41132;47.162;9.470;2022-10-28T05:59:21;5.47;;;1.20;;
55270;SDS011;41132;47.162;9.470;2022-10-28T06:01:46;3.80;;;1.40;;
55270;SDS011;41132;47.162;9.470;2022-10-28T06:04:12;3.13;;;1.27;;
55270;SDS011;41132;47.162;9.470;2022-10-28T06:06:37;2.80;;;1.27;;
55270;SDS011;41132;47.162;9.470;2022-10-28T06:09:02;4.22;;;1.50;;
55270;SDS011;41132;47.162;9.470;2022-10-28T06:11:28;6.68;;;1.67;;
55270;SDS011;41132;47.162;9.470;2022-10-28T06:13:54;5.93;;;1.42;;
55270;SDS011;41132;47.162;9.470;2022-10-28T06:16:19;3.08;;;1.35;;
55270;SDS011;41132;47.162;9.470;2022-10-28T06:18:44;8.63;;;1.52;;
55270;SDS011;41132;47.162;9.470;2022-10-28T06:21:10;3.95;;;1.30;;
55270;SDS011;41132;47.162;9.470;2022-10-28T06:23:35;4.50;;;1.40;;
55270;SDS011;41132;47.162;9.470;2022-10-28T06:26:01;5.55;;;1.20;;
55270;SDS011;41132;47.162;9.470;2022-10-28T06:28:27;3.47;;;1.20;;
55270;SDS011;41132;47.162;9.470;2022-10-28T06:30:53;3.70;;;1.38;;
55270;SDS011;41132;47.162;9.470;2022-10-28T06:33:18;5.22;;;1.92;;
55270;SDS011;41132;47.162;9.470;2022-10-28T06:35:44;2.40;;;1.10;;
55270;SDS011;41132;47.162;9.470;2022-10-28T06:38:09;3.45;;;1.73;;
55270;SDS011;41132;47.162;9.470;2022-10-28T06:40:35;5.00;;;1.23;;
55270;SDS011;41132;47.162;9.470;2022-10-28T06:43:01;4.57;;;1.23;;
55270;SDS011;41132;47.162;9.470;2022-10-28T06:45:29;3.30;;;1.30;;
55270;SDS011;41132;47.162;9.470;2022-10-28T06:48:01;3.67;;;1.20;;
55270;SDS011;41132;47.162;9.470;2022-10-28T06:50:29;2.40;;;1.10;;
55270;SDS011;41132;47.162;9.470;2022-10-28T06:52:56;4.40;;;1.38;;
55270;SDS011;41132;47.162;9.470;2022-10-28T06:55:23;3.47;;;1.40;;
55270;SDS011;41132;47.162;9.470;2022-10-28T06:57:49;3.53;;;1.35;;
55270;SDS011;41132;47.162;9.470;2022-10-28T07:00:14;3.00;;;1.33;;
55270;SDS011;41132;47.162;9.470;2022-10-28T07:02:40;6.43;;;1.40;;
55270;SDS011;41132;47.162;9.470;2022-10-28T07:05:06;3.78;;;1.52;;
55270;SDS011;41132;47.162;9.470;2022-10-28T07:07:32;3.35;;;1.27;;
55270;SDS011;41132;47.162;9.470;2022-10-28T07:09:57;5.15;;;1.30;;
55270;SDS011;41132;47.162;9.470;2022-10-28T07:12:22;5.70;;;1.58;;
55270;SDS011;41132;47.162;9.470;2022-10-28T07:14:48;3.60;;;1.67;;
55270;SDS011;41132;47.162;9.470;2022-10-28T07:17:13;5.57;;;1.40;;
55270;SDS011;41132;47.162;9.470;2022-10-28T07:19:38;3.65;;;1.58;;
55270;SDS011;41132;47.162;9.470;2022-10-28T07:22:04;3.40;;;1.20;;
55270;SDS011;41132;47.162;9.470;2022-10-28T07:24:29;5.65;;;1.40;;
55270;SDS011;41132;47.162;9.470;2022-10-28T07:26:54;3.13;;;1.27;;
55270;SDS011;41132;47.162;9.470;2022-10-28T07:29:20;4.45;;;1.67;;
55270;SDS011;41132;47.162;9.470;2022-10-28T07:31:45;2.95;;;1.10;;
55270;SDS011;41132;47.162;9.470;2022-10-28T07:34:10;2.53;;;1.15;;
55270;SDS011;41132;47.162;9.470;2022-10-28T07:36:36;3.60;;;1.15;;
55270;SDS011;41132;47.162;9.470;2022-10-28T07:39:01;4.68;;;1.42;;
55270;SDS011;41132;47.162;9.470;2022-10-28T07:41:27;6.05;;;1.50;;
55270;SDS011;41132;47.162;9.470;2022-10-28T07:43:52;3.20;;;1.30;;
55270;SDS011;41132;47.162;9.470;2022-10-28T07:46:18;3.65;;;1.45;;
55270;SDS011;41132;47.162;9.470;2022-10-28T07:48:43;3.92;;;1.25;;
55270;SDS011;41132;47.162;9.470;2022-10-28T07:51:10;5.60;;;1.45;;
55270;SDS011;41132;47.162;9.470;2022-10-28T07:53:37;4.72;;;1.30;;
55270;SDS011;41132;47.162;9.470;2022-10-28T07:56:04;5.75;;;1.55;;
55270;SDS011;41132;47.162;9.470;2022-10-28T07:58:33;3.92;;;1.50;;
55270;SDS011;41132;47.162;9.470;2022-10-28T08:01:03;3.42;;;1.30;;
55270;SDS011;41132;47.162;9.470;2022-10-28T08:03:30;1.98;;;1.00;;
55270;SDS011;41132;47.162;9.470;2022-10-28T08:06:02;4.60;;;1.40;;
55270;SDS011;41132;47.162;9.470;2022-10-28T08:08:30;3.65;;;1.05;;
55270;SDS011;41132;47.162;9.470;2022-10-28T08:10:55;3.63;;;1.35;;
55270;SDS011;41132;47.162;9.470;2022-10-28T08:13:20;6.45;;;1.98;;
55270;SDS011;41132;47.162;9.470;2022-10-28T08:15:53;5.72;;;1.33;;
55270;SDS011;41132;47.162;9.470;2022-10-28T08:18:19;3.33;;;1.20;;
55270;SDS011;41132;47.162;9.470;2022-10-28T08:20:45;4.03;;;1.55;;
55270;SDS011;41132;47.162;9.470;2022-10-28T08:23:10;4.22;;;1.40;;
55270;SDS011;41132;47.162;9.470;2022-10-28T08:25:36;5.78;;;1.33;;
55270;SDS011;41132;47.162;9.470;2022-10-28T08:28:01;4.93;;;1.27;;
55270;SDS011;41132;47.162;9.470;2022-10-28T08:30:26;2.65;;;1.10;;
55270;SDS011;41132;47.162;9.470;2022-10-28T08:32:53;3.47;;;1.30;;
55270;SDS011;41132;47.162;9.470;2022-10-28T08:35:19;4.38;;;1.42;;
55270;SDS011;41132;47.162;9.470;2022-10-28T08:37:49;5.85;;;1.20;;
55270;SDS011;41132;47.162;9.470;2022-10-28T08:40:15;4.57;;;1.40;;
55270;SDS011;41132;47.162;9.470;2022-10-28T08:45:22;3.15;;;1.10;;
55270;SDS011;41132;47.162;9.470;2022-10-28T08:50:58;3.22;;;1.25;;
55270;SDS011;41132;47.162;9.470;2022-10-28T08:53:31;4.00;;;1.30;;
55270;SDS011;41132;47.162;9.470;2022-10-28T08:56:05;4.25;;;1.40;;
55270;SDS011;41132;47.162;9.470;2022-10-28T08:58:38;5.30;;;1.42;;
55270;SDS011;41132;47.162;9.470;2022-10-28T09:01:07;4.13;;;1.70;;
55270;SDS011;41132;47.162;9.470;2022-10-28T09:03:41;5.82;;;1.40;;
55270;SDS011;41132;47.162;9.470;2022-10-28T09:06:09;2.38;;;0.93;;
55270;SDS011;41132;47.162;9.470;2022-10-28T09:08:36;5.28;;;1.48;;
55270;SDS011;41132;47.162;9.470;2022-10-28T09:16:45;4.43;;;1.50;;
55270;SDS011;41132;47.162;9.470;2022-10-28T09:19:29;4.57;;;1.17;;
55270;SDS011;41132;47.162;9.470;2022-10-28T09:24:44;4.38;;;1.40;;
55270;SDS011;41132;47.162;9.470;2022-10-28T09:30:21;3.25;;;1.17;;
55270;SDS011;41132;47.162;9.470;2022-10-28T09:33:00;5.97;;;1.20;;
55270;SDS011;41132;47.162;9.470;2022-10-28T09:35:27;3.63;;;1.10;;
55270;SDS011;41132;47.162;9.470;2022-10-28T09:38:14;3.58;;;1.17;;
55270;SDS011;41132;47.162;9.470;2022-10-28T09:41:32;2.90;;;1.13;;
55270;SDS011;41132;47.162;9.470;2022-10-28T09:43:48;4.28;;;1.25;;
55270;SDS011;41132;47.162;9.470;2022-10-28T09:46:17;3.17;;;1.10;;
55270;SDS011;41132;47.162;9.470;2022-10-28T09:48:45;3.08;;;1.27;;
55270;SDS011;41132;47.162;9.470;2022-10-28T09:53:57;4.15;;;1.35;;
55270;SDS011;41132;47.162;9.470;2022-10-28T09:56:24;5.57;;;1.60;;
55270;SDS011;41132;47.162;9.470;2022-10-28T09:58:50;3.92;;;1.40;;
55270;SDS011;41132;47.162;9.470;2022-10-28T10:01:18;7.68;;;1.67;;
55270;SDS011;41132;47.162;9.470;2022-10-28T10:03:46;5.72;;;1.52;;
55270;SDS011;41132;47.162;9.470;2022-10-28T10:06:17;5.18;;;1.27;;
55270;SDS011;41132;47.162;9.470;2022-10-28T10:08:46;3.38;;;1.30;;
55270;SDS011;41132;47.162;9.470;2022-10-28T10:11:35;3.90;;;1.20;;
55270;SDS011;41132;47.162;9.470;2022-10-28T10:14:04;2.88;;;1.00;;
55270;SDS011;41132;47.162;9.470;2022-10-28T10:19:11;5.03;;;1.23;;
55270;SDS011;41132;47.162;9.470;2022-10-28T10:21:40;8.10;;;1.35;;
55270;SDS011;41132;47.162;9.470;2022-10-28T10:24:23;3.85;;;1.10;;
55270;SDS011;41132;47.162;9.470;2022-10-28T10:27:20;6.13;;;1.38;;
55270;SDS011;41132;47.162;9.470;2022-10-28T10:29:45;4.32;;;1.45;;
55270;SDS011;41132;47.162;9.470;2022-10-28T10:32:31;3.10;;;1.33;;
55270;SDS011;41132;47.162;9.470;2022-10-28T10:38:12;2.05;;;1.00;;
55270;SDS011;41132;47.162;9.470;2022-10-28T10:40:46;4.05;;;1.40;;
55270;SDS011;41132;47.162;9.470;2022-10-28T10:48:40;3.42;;;1.20;;
55270;SDS011;41132;47.162;9.470;2022-10-28T10:54:01;3.28;;;1.13;;
55270;SDS011;41132;47.162;9.470;2022-10-28T10:56:27;3.30;;;1.20;;
55270;SDS011;41132;47.162;9.470;2022-10-28T10:58:55;7.20;;;1.58;;
55270;SDS011;41132;47.162;9.470;2022-10-28T11:01:26;4.20;;;1.38;;
55270;SDS011;41132;47.162;9.470;2022-10-28T11:03:59;4.53;;;1.20;;
55270;SDS011;41132;47.162;9.470;2022-10-28T11:06:28;3.40;;;1.08;;
55270;SDS011;41132;47.162;9.470;2022-10-28T11:08:56;3.38;;;1.20;;
55270;SDS011;41132;47.162;9.470;2022-10-28T11:11:38;6.70;;;1.30;;
55270;SDS011;41132;47.162;9.470;2022-10-28T11:16:33;3.85;;;1.17;;
55270;SDS011;41132;47.162;9.470;2022-10-28T11:19:21;4.22;;;1.23;;
55270;SDS011;41132;47.162;9.470;2022-10-28T11:30:20;2.15;;;1.08;;
55270;SDS011;41132;47.162;9.470;2022-10-28T11:32:59;7.28;;;1.58;;
55270;SDS011;41132;47.162;9.470;2022-10-28T11:38:32;4.80;;;1.20;;
55270;SDS011;41132;47.162;9.470;2022-10-28T11:43:55;3.92;;;1.10;;
55270;SDS011;41132;47.162;9.470;2022-10-28T11:57:35;2.97;;;1.20;;
55270;SDS011;41132;47.162;9.470;2022-10-28T12:03:03;3.60;;;1.10;;
55270;SDS011;41132;47.162;9.470;2022-10-28T12:13:37;5.72;;;1.05;;
55270;SDS011;41132;47.162;9.470;2022-10-28T12:16:14;6.07;;;1.20;;
55270;SDS011;41132;47.162;9.470;2022-10-28T12:18:56;3.80;;;1.30;;
55270;SDS011;41132;47.162;9.470;2022-10-28T12:21:36;4.72;;;1.30;;
55270;SDS011;41132;47.162;9.470;2022-10-28T12:24:08;5.93;;;1.27;;
55270;SDS011;41132;47.162;9.470;2022-10-28T12:26:46;4.68;;;1.40;;
55270;SDS011;41132;47.162;9.470;2022-10-28T12:29:34;5.15;;;1.45;;
55270;SDS011;41132;47.162;9.470;2022-10-28T12:32:11;2.25;;;1.13;;
55270;SDS011;41132;47.162;9.470;2022-10-28T12:34:44;6.38;;;1.30;;
55270;SDS011;41132;47.162;9.470;2022-10-28T12:37:23;3.90;;;1.10;;
55270;SDS011;41132;47.162;9.470;2022-10-28T12:39:56;4.55;;;1.45;;
55270;SDS011;41132;47.162;9.470;2022-10-28T12:42:30;2.60;;;1.10;;
55270;SDS011;41132;47.162;9.470;2022-10-28T12:45:00;4.35;;;1.02;;
55270;SDS011;41132;47.162;9.470;2022-10-28T12:58:11;5.68;;;1.33;;
55270;SDS011;41132;47.162;9.470;2022-10-28T13:00:42;8.20;;;1.40;;
55270;SDS011;41132;47.162;9.470;2022-10-28T13:03:11;3.03;;;1.15;;
55270;SDS011;41132;47.162;9.470;2022-10-28T13:05:52;6.35;;;1.27;;
55270;SDS011;41132;47.162;9.470;2022-10-28T13:08:37;6.80;;;1.40;;
55270;SDS011;41132;47.162;9.470;2022-10-28T13:11:31;5.93;;;1.48;;
55270;SDS011;41132;47.162;9.470;2022-10-28T13:16:55;5.10;;;1.35;;
55270;SDS011;41132;47.162;9.470;2022-10-28T13:22:52;4.60;;;1.50;;
55270;SDS011;41132;47.162;9.470;2022-10-28T13:25:59;4.63;;;1.40;;
55270;SDS011;41132;47.162;9.470;2022-10-28T13:28:18;3.83;;;1.33;;
55270;SDS011;41132;47.162;9.470;2022-10-28T13:30:54;3.47;;;1.40;;
55270;SDS011;41132;47.162;9.470;2022-10-28T13:33:24;5.00;;;1.58;;
55270;SDS011;41132;47.162;9.470;2022-10-28T13:35:51;5.93;;;1.50;;
55270;SDS011;41132;47.162;9.470;2022-10-28T13:38:23;2.45;;;1.05;;
55270;SDS011;41132;47.162;9.470;2022-10-28T13:47:01;7.95;;;1.40;;
55270;SDS011;41132;47.162;9.470;2022-10-28T13:54:35;6.95;;;1.50;;
55270;SDS011;41132;47.162;9.470;2022-10-28T13:59:50;3.55;;;1.50;;
55270;SDS011;41132;47.162;9.470;2022-10-28T14:02:37;4.15;;;1.42;;
55270;SDS011;41132;47.162;9.470;2022-10-28T14:05:06;4.65;;;1.70;;
55270;SDS011;41132;47.162;9.470;2022-10-28T14:07:34;4.53;;;1.30;;
55270;SDS011;41132;47.162;9.470;2022-10-28T14:10:12;4.88;;;1.45;;
55270;SDS011;41132;47.162;9.470;2022-10-28T14:12:45;4.88;;;1.20;;
55270;SDS011;41132;47.162;9.470;2022-10-28T14:15:17;4.28;;;1.38;;
55270;SDS011;41132;47.162;9.470;2022-10-28T14:17:46;4.40;;;1.27;;
55270;SDS011;41132;47.162;9.470;2022-10-28T14:20:29;6.50;;;1.55;;
55270;SDS011;41132;47.162;9.470;2022-10-28T14:22:59;4.75;;;1.60;;
55270;SDS011;41132;47.162;9.470;2022-10-28T14:38:52;4.70;;;1.50;;
55270;SDS011;41132;47.162;9.470;2022-10-28T14:44:31;5.22;;;1.20;;
55270;SDS011;41132;47.162;9.470;2022-10-28T14:49:37;5.57;;;1.48;;
55270;SDS011;41132;47.162;9.470;2022-10-28T14:52:15;3.90;;;1.60;;
55270;SDS011;41132;47.162;9.470;2022-10-28T14:57:16;6.82;;;1.38;;
55270;SDS011;41132;47.162;9.470;2022-10-28T14:59:46;5.15;;;1.50;;
55270;SDS011;41132;47.162;9.470;2022-10-28T15:02:15;6.72;;;1.42;;
55270;SDS011;41132;47.162;9.470;2022-10-28T15:04:45;6.05;;;1.35;;
55270;SDS011;41132;47.162;9.470;2022-10-28T15:07:20;4.88;;;1.27;;
55270;SDS011;41132;47.162;9.470;2022-10-28T15:09:46;4.22;;;1.35;;
55270;SDS011;41132;47.162;9.470;2022-10-28T15:12:17;5.65;;;1.60;;
55270;SDS011;41132;47.162;9.470;2022-10-28T15:14:45;4.57;;;1.38;;
55270;SDS011;41132;47.162;9.470;2022-10-28T15:19:58;4.35;;;1.27;;
55270;SDS011;41132;47.162;9.470;2022-10-28T15:25:28;5.25;;;1.70;;
55270;SDS011;41132;47.162;9.470;2022-10-28T15:27:49;5.78;;;1.40;;
55270;SDS011;41132;47.162;9.470;2022-10-28T15:30:16;5.43;;;1.70;;
55270;SDS011;41132;47.162;9.470;2022-10-28T15:32:47;7.95;;;1.70;;
55270;SDS011;41132;47.162;9.470;2022-10-28T15:37:54;5.05;;;1.70;;
55270;SDS011;41132;47.162;9.470;2022-10-28T15:40:28;7.63;;;1.83;;
55270;SDS011;41132;47.162;9.470;2022-10-28T15:43:04;6.68;;;1.75;;
55270;SDS011;41132;47.162;9.470;2022-10-28T15:45:31;3.80;;;1.52;;
55270;SDS011;41132;47.162;9.470;2022-10-28T15:47:59;8.55;;;2.05;;
55270;SDS011;41132;47.162;9.470;2022-10-28T15:56:06;6.15;;;2.05;;
55270;SDS011;41132;47.162;9.470;2022-10-28T15:58:43;6.03;;;1.77;;
55270;SDS011;41132;47.162;9.470;2022-10-28T16:01:55;6.93;;;2.00;;
55270;SDS011;41132;47.162;9.470;2022-10-28T16:03:58;5.35;;;1.77;;
55270;SDS011;41132;47.162;9.470;2022-10-28T16:06:34;8.68;;;1.92;;
55270;SDS011;41132;47.162;9.470;2022-10-28T16:11:43;5.35;;;1.88;;
55270;SDS011;41132;47.162;9.470;2022-10-28T16:19:55;8.63;;;2.28;;
55270;SDS011;41132;47.162;9.470;2022-10-28T16:22:23;7.38;;;1.95;;
55270;SDS011;41132;47.162;9.470;2022-10-28T16:24:51;4.80;;;1.90;;
55270;SDS011;41132;47.162;9.470;2022-10-28T16:27:21;5.13;;;1.40;;
55270;SDS011;41132;47.162;9.470;2022-10-28T16:29:48;6.22;;;2.03;;
55270;SDS011;41132;47.162;9.470;2022-10-28T16:32:15;7.10;;;1.92;;
55270;SDS011;41132;47.162;9.470;2022-10-28T16:34:42;7.32;;;2.28;;
55270;SDS011;41132;47.162;9.470;2022-10-28T16:37:19;7.10;;;2.20;;
55270;SDS011;41132;47.162;9.470;2022-10-28T16:39:47;7.93;;;2.25;;
55270;SDS011;41132;47.162;9.470;2022-10-28T16:42:12;8.45;;;2.25;;
55270;SDS011;41132;47.162;9.470;2022-10-28T16:44:38;7.60;;;2.25;;
55270;SDS011;41132;47.162;9.470;2022-10-28T16:47:14;7.00;;;2.03;;
55270;SDS011;41132;47.162;9.470;2022-10-28T16:49:40;6.63;;;2.05;;
55270;SDS011;41132;47.162;9.470;2022-10-28T16:52:10;5.97;;;2.10;;
55270;SDS011;41132;47.162;9.470;2022-10-28T16:54:39;7.65;;;2.60;;
55270;SDS011;41132;47.162;9.470;2022-10-28T16:57:04;6.88;;;2.22;;
55270;SDS011;41132;47.162;9.470;2022-10-28T16:59:29;5.82;;;1.90;;
55270;SDS011;41132;47.162;9.470;2022-10-28T17:01:55;5.97;;;1.70;;
55270;SDS011;41132;47.162;9.470;2022-10-28T17:04:22;6.95;;;1.65;;
55270;SDS011;41132;47.162;9.470;2022-10-28T17:06:48;6.38;;;1.83;;
55270;SDS011;41132;47.162;9.470;2022-10-28T17:09:13;6.45;;;1.88;;
55270;SDS011;41132;47.162;9.470;2022-10-28T17:11:38;10.50;;;2.35;;
55270;SDS011;41132;47.162;9.470;2022-10-28T17:14:04;5.43;;;2.15;;
55270;SDS011;41132;47.162;9.470;2022-10-28T17:16:29;7.32;;;2.38;;
55270;SDS011;41132;47.162;9.470;2022-10-28T17:18:54;5.90;;;2.40;;
55270;SDS011;41132;47.162;9.470;2022-10-28T17:21:19;7.75;;;2.40;;
55270;SDS011;41132;47.162;9.470;2022-10-28T17:23:45;6.90;;;2.20;;
55270;SDS011;41132;47.162;9.470;2022-10-28T17:26:10;7.10;;;2.40;;
55270;SDS011;41132;47.162;9.470;2022-10-28T17:28:36;8.07;;;2.80;;
55270;SDS011;41132;47.162;9.470;2022-10-28T17:31:02;7.00;;;2.30;;
55270;SDS011;41132;47.162;9.470;2022-10-28T17:33:30;10.18;;;2.30;;
55270;SDS011;41132;47.162;9.470;2022-10-28T17:36:00;9.88;;;2.30;;
55270;SDS011;41132;47.162;9.470;2022-10-28T17:38:30;9.48;;;3.13;;
55270;SDS011;41132;47.162;9.470;2022-10-28T17:40:55;5.88;;;2.65;;
55270;SDS011;41132;47.162;9.470;2022-10-28T17:43:21;8.10;;;2.45;;
55270;SDS011;41132;47.162;9.470;2022-10-28T17:45:47;10.57;;;2.08;;
55270;SDS011;41132;47.162;9.470;2022-10-28T17:48:12;6.78;;;2.17;;
55270;SDS011;41132;47.162;9.470;2022-10-28T17:50:38;8.15;;;2.28;;
55270;SDS011;41132;47.162;9.470;2022-10-28T17:53:03;15.23;;;2.90;;
55270;SDS011;41132;47.162;9.470;2022-10-28T17:55:29;8.45;;;2.33;;
55270;SDS011;41132;47.162;9.470;2022-10-28T17:57:55;5.05;;;2.20;;
55270;SDS011;41132;47.162;9.470;2022-10-28T18:00:21;7.53;;;2.60;;
55270;SDS011;41132;47.162;9.470;2022-10-28T18:02:46;8.82;;;2.33;;
55270;SDS011;41132;47.162;9.470;2022-10-28T18:05:12;10.05;;;3.28;;